createdAt,value
2023-04-16T00:00:19.178Z,81.75
2023-04-16T00:02:45.883Z,81.37
2023-04-16T00:05:14.420Z,81.05
2023-04-16T00:07:41.040Z,82.18
2023-04-16T00:10:07.946Z,81.68
2023-04-16T00:12:34.294Z,81.41
2023-04-16T00:15:00.614Z,81.28
2023-04-16T00:17:26.979Z,81.09
2023-04-16T00:19:53.397Z,81.00
2023-04-16T00:22:19.781Z,81.09
2023-04-16T00:24:46.178Z,81.41
2023-04-16T00:27:12.585Z,81.19
2023-04-16T00:29:39.040Z,81.51
2023-04-16T00:32:06.203Z,81.52
2023-04-16T00:34:32.663Z,81.74
2023-04-16T00:36:59.478Z,80.99
2023-04-16T00:39:25.893Z,81.39
2023-04-16T00:41:52.373Z,81.85
2023-04-16T00:44:18.782Z,81.50
2023-04-16T00:46:45.997Z,82.06
2023-04-16T00:49:12.659Z,81.29
2023-04-16T00:51:39.109Z,81.55
2023-04-16T00:54:06.397Z,81.50
2023-04-16T00:56:33.298Z,81.60
2023-04-16T00:58:59.743Z,83.00
2023-04-16T01:01:26.130Z,82.23
2023-04-16T01:03:52.807Z,83.27
2023-04-16T01:06:19.440Z,83.19
2023-04-16T01:08:47.111Z,83.68
2023-04-16T01:11:15.027Z,83.19
2023-04-16T01:13:41.509Z,84.88
2023-04-16T01:16:10.330Z,84.88
2023-04-16T01:18:37.669Z,83.53
2023-04-16T01:21:05.004Z,84.11
2023-04-16T01:23:31.575Z,84.06
2023-04-16T01:25:58.005Z,83.95
2023-04-16T01:28:24.438Z,84.54
2023-04-16T01:30:50.858Z,85.05
2023-04-16T01:33:18.533Z,84.10
2023-04-16T01:35:45.267Z,84.12
2023-04-16T01:38:11.813Z,84.00
2023-04-16T01:40:38.299Z,83.76
2023-04-16T01:43:04.707Z,83.99
2023-04-16T01:45:31.974Z,83.96
2023-04-16T01:47:58.556Z,83.87
2023-04-16T01:50:25.058Z,83.83
2023-04-16T01:52:51.426Z,84.17
2023-04-16T01:55:18.025Z,83.64
2023-04-16T01:57:44.471Z,84.42
2023-04-16T02:00:11.261Z,84.01
2023-04-16T02:02:37.897Z,84.31
2023-04-16T02:05:04.644Z,84.95
2023-04-16T02:07:31.706Z,85.46
2023-04-16T02:09:58.247Z,85.49
2023-04-16T02:12:24.680Z,87.10
2023-04-16T02:14:51.024Z,86.88
2023-04-16T02:17:17.676Z,85.67
2023-04-16T02:19:43.999Z,85.73
2023-04-16T02:22:10.478Z,85.78
2023-04-16T02:24:36.838Z,85.96
2023-04-16T02:27:03.756Z,85.98
2023-04-16T02:29:31.789Z,85.18
2023-04-16T02:31:59.533Z,86.53
2023-04-16T02:34:25.978Z,86.37
2023-04-16T02:36:52.354Z,85.57
2023-04-16T02:39:18.690Z,86.45
2023-04-16T02:41:45.136Z,86.16
2023-04-16T02:44:11.526Z,87.03
2023-04-16T02:46:37.888Z,86.33
2023-04-16T02:49:04.288Z,86.36
2023-04-16T02:51:30.938Z,86.13
2023-04-16T02:53:57.282Z,86.65
2023-04-16T02:56:23.618Z,87.04
2023-04-16T02:58:50.232Z,87.05
2023-04-16T03:01:17.991Z,88.40
2023-04-16T03:03:44.475Z,88.47
2023-04-16T03:06:11.503Z,88.22
2023-04-16T03:08:37.946Z,89.03
2023-04-16T03:11:04.358Z,89.13
2023-04-16T03:13:30.828Z,89.06
2023-04-16T03:15:57.181Z,89.58
2023-04-16T03:18:23.582Z,89.72
2023-04-16T03:20:54.177Z,89.83
2023-04-16T03:23:20.646Z,89.63
2023-04-16T03:25:47.940Z,90.49
2023-04-16T03:28:14.942Z,90.97
2023-04-16T03:30:41.383Z,89.87
2023-04-16T03:33:07.793Z,91.27
2023-04-16T03:35:34.237Z,91.81
2023-04-16T03:38:00.589Z,91.10
2023-04-16T03:40:26.950Z,90.19
2023-04-16T03:42:53.496Z,90.14
2023-04-16T03:45:19.936Z,90.92
2023-04-16T03:47:48.526Z,92.44
2023-04-16T03:50:14.913Z,91.95
2023-04-16T03:52:41.348Z,92.61
2023-04-16T03:55:08.177Z,92.46
2023-04-16T03:57:34.591Z,92.48
2023-04-16T04:00:01.078Z,91.47
2023-04-16T04:02:27.686Z,92.93
2023-04-16T04:04:54.343Z,93.54
2023-04-16T04:07:20.763Z,93.17
2023-04-16T04:09:47.160Z,92.98
2023-04-16T04:12:13.625Z,92.75
2023-04-16T04:14:40.107Z,93.06
2023-04-16T04:17:07.215Z,92.53
2023-04-16T04:19:33.725Z,92.49
2023-04-16T04:22:00.293Z,91.89
2023-04-16T04:24:27.039Z,93.33
2023-04-16T04:26:53.359Z,93.87
2023-04-16T04:29:19.675Z,92.53
2023-04-16T04:31:46.088Z,92.49
2023-04-16T04:34:12.485Z,92.18
2023-04-16T04:36:38.836Z,92.42
2023-04-16T04:39:05.465Z,92.21
2023-04-16T04:41:31.881Z,92.35
2023-04-16T04:43:58.250Z,91.91
2023-04-16T04:46:24.684Z,92.00
2023-04-16T04:48:51.211Z,92.42
2023-04-16T04:51:17.720Z,92.42
2023-04-16T04:53:44.104Z,92.95
2023-04-16T04:56:12.737Z,92.50
2023-04-16T04:58:40.637Z,92.42
2023-04-16T05:01:07.048Z,92.32
2023-04-16T05:03:33.504Z,92.90
2023-04-16T05:05:59.972Z,92.95
2023-04-16T05:08:26.295Z,92.52
2023-04-16T05:10:52.757Z,92.99
2023-04-16T05:13:19.102Z,92.91
2023-04-16T05:15:46.046Z,93.65
2023-04-16T05:18:12.461Z,93.39
2023-04-16T05:20:38.778Z,93.50
2023-04-16T05:23:05.280Z,92.96
2023-04-16T05:25:31.651Z,93.63
2023-04-16T05:27:58.039Z,94.07
2023-04-16T05:30:24.414Z,93.82
2023-04-16T05:32:51.627Z,94.50
2023-04-16T05:35:18.007Z,93.02
2023-04-16T05:37:44.332Z,92.93
2023-04-16T05:40:13.335Z,93.02
2023-04-16T05:42:39.785Z,93.94
2023-04-16T05:45:06.942Z,94.09
2023-04-16T05:47:33.351Z,93.19
2023-04-16T05:49:59.721Z,93.06
2023-04-16T05:52:26.133Z,94.18
2023-04-16T05:54:52.501Z,94.49
2023-04-16T05:57:18.823Z,93.80
2023-04-16T05:59:45.217Z,94.01
2023-04-16T06:02:11.685Z,93.66
2023-04-16T06:04:38.072Z,92.81
2023-04-16T06:07:04.448Z,93.41
2023-04-16T06:09:30.810Z,93.55
2023-04-16T06:11:57.891Z,93.67
2023-04-16T06:14:24.263Z,93.18
2023-04-16T06:16:50.980Z,92.95
2023-04-16T06:19:17.378Z,94.25
2023-04-16T06:21:43.971Z,93.73
2023-04-16T06:24:10.569Z,93.92
2023-04-16T06:26:36.988Z,93.50
2023-04-16T06:29:03.334Z,93.44
2023-04-16T06:31:30.385Z,93.28
2023-04-16T06:33:56.950Z,93.11
2023-04-16T06:36:23.305Z,92.90
2023-04-16T06:38:49.656Z,93.87
2023-04-16T06:41:16.120Z,92.97
2023-04-16T06:43:42.500Z,92.84
2023-04-16T06:46:08.900Z,93.92
2023-04-16T06:48:35.246Z,94.59
2023-04-16T06:51:01.861Z,94.09
2023-04-16T06:53:28.445Z,94.00
2023-04-16T06:55:54.784Z,93.55
2023-04-16T06:58:22.264Z,92.83
2023-04-16T07:00:48.762Z,92.93
2023-04-16T07:03:15.431Z,93.28
2023-04-16T07:05:42.001Z,92.94
2023-04-16T07:08:08.404Z,92.85
2023-04-16T07:10:34.850Z,93.21
2023-04-16T07:13:01.612Z,92.68
2023-04-16T07:15:28.805Z,92.90
2023-04-16T07:17:55.267Z,92.14
2023-04-16T07:20:21.764Z,91.17
2023-04-16T07:22:49.291Z,91.15
2023-04-16T07:25:16.710Z,91.59
2023-04-16T07:27:43.125Z,92.02
2023-04-16T07:30:09.712Z,91.45
2023-04-16T07:32:36.254Z,91.45
2023-04-16T07:35:03.766Z,91.77
2023-04-16T07:37:31.033Z,91.63
2023-04-16T07:39:57.854Z,91.29
2023-04-16T07:42:24.476Z,91.17
2023-04-16T07:44:51.156Z,91.75
2023-04-16T07:47:17.643Z,90.96
2023-04-16T07:49:44.033Z,91.00
2023-04-16T07:52:10.493Z,91.09
2023-04-16T07:54:36.861Z,90.83
2023-04-16T07:57:03.377Z,90.54
2023-04-16T07:59:29.989Z,90.45
2023-04-16T08:01:56.896Z,90.43
2023-04-16T08:04:25.779Z,90.64
2023-04-16T08:06:53.263Z,90.51
2023-04-16T08:09:21.491Z,91.25
2023-04-16T08:11:49.815Z,91.01
2023-04-16T08:14:16.947Z,91.01
2023-04-16T08:16:43.465Z,90.73
2023-04-16T08:19:09.979Z,90.40
2023-04-16T08:21:36.799Z,90.12
2023-04-16T08:24:03.246Z,89.95
2023-04-16T08:26:29.674Z,90.41
2023-04-16T08:28:56.015Z,91.15
2023-04-16T08:31:22.503Z,92.18
2023-04-16T08:33:48.886Z,91.87
2023-04-16T08:36:15.295Z,92.06
2023-04-16T08:38:41.650Z,91.60
2023-04-16T08:41:12.199Z,91.19
2023-04-16T08:43:44.309Z,90.92
2023-04-16T08:46:19.125Z,92.08
2023-04-16T08:48:50.513Z,92.10
2023-04-16T08:51:19.317Z,91.41
2023-04-16T08:53:53.196Z,90.55
2023-04-16T08:56:26.484Z,90.41
2023-04-16T08:58:54.900Z,89.39
2023-04-16T09:01:21.554Z,88.69
2023-04-16T09:03:48.784Z,87.54
2023-04-16T09:06:16.363Z,87.91
2023-04-16T09:08:46.470Z,87.00
2023-04-16T09:11:21.897Z,86.18
2023-04-16T09:13:48.230Z,86.24
2023-04-16T09:16:15.219Z,85.75
2023-04-16T09:18:41.820Z,85.94
2023-04-16T09:21:10.400Z,84.83
2023-04-16T09:23:38.701Z,84.92
2023-04-16T09:26:06.242Z,83.40
2023-04-16T09:28:43.718Z,83.47
2023-04-16T09:31:12.769Z,83.33
2023-04-16T09:33:39.271Z,82.78
2023-04-16T09:36:06.862Z,83.31
2023-04-16T09:38:49.897Z,82.92
2023-04-16T09:41:16.618Z,82.59
2023-04-16T09:44:00.681Z,82.95
2023-04-16T09:47:05.478Z,82.35
2023-04-16T09:49:34.804Z,82.63
2023-04-16T09:52:02.232Z,83.27
2023-04-16T09:54:28.775Z,83.12
2023-04-16T09:56:56.922Z,82.33
2023-04-16T09:59:24.161Z,83.08
2023-04-16T10:01:53.328Z,82.97
2023-04-16T10:04:50.746Z,83.06
2023-04-16T10:07:18.275Z,82.24
2023-04-16T10:09:44.753Z,81.45
2023-04-16T10:12:12.738Z,80.51
2023-04-16T10:14:40.264Z,80.75
2023-04-16T10:17:07.727Z,79.63
2023-04-16T10:19:35.352Z,77.44
2023-04-16T10:22:02.860Z,75.56
2023-04-16T10:24:31.115Z,75.05
2023-04-16T10:26:58.219Z,74.15
2023-04-16T10:29:26.056Z,75.08
2023-04-16T10:31:53.485Z,75.02
2023-04-16T10:34:21.003Z,76.58
2023-04-16T10:36:55.440Z,70.72
2023-04-16T10:39:23.478Z,70.38
2023-04-16T10:41:51.309Z,69.58
2023-04-16T10:44:19.138Z,63.28
2023-04-16T10:46:52.128Z,63.41
2023-04-16T10:49:22.955Z,59.08
2023-04-16T10:52:00.224Z,57.47
2023-04-16T10:54:29.068Z,58.05
2023-04-16T10:57:19.889Z,57.90
2023-04-16T10:59:48.634Z,57.93
2023-04-16T11:02:17.430Z,56.22
2023-04-16T11:04:45.775Z,58.20
2023-04-16T11:07:15.396Z,56.14
2023-04-16T11:09:52.822Z,58.13
2023-04-16T11:12:22.318Z,59.56
2023-04-16T11:14:53.722Z,60.18
2023-04-16T11:17:21.601Z,60.21
2023-04-16T11:19:48.433Z,60.97
2023-04-16T11:22:17.448Z,59.44
2023-04-16T11:24:45.559Z,57.64
2023-04-16T11:27:13.783Z,58.34
2023-04-16T11:29:40.270Z,59.78
2023-04-16T11:32:06.694Z,59.70
2023-04-16T11:34:33.220Z,60.70
2023-04-16T11:36:59.812Z,59.31
2023-04-16T11:39:26.268Z,56.65
2023-04-16T11:41:53.884Z,56.85
2023-04-16T11:44:25.405Z,58.94
2023-04-16T11:46:53.534Z,60.41
2023-04-16T11:49:30.277Z,61.44
2023-04-16T11:51:57.044Z,61.98
2023-04-16T11:54:24.526Z,60.77
2023-04-16T11:56:52.926Z,58.88
2023-04-16T11:59:22.704Z,60.50
2023-04-16T12:01:52.043Z,57.42
2023-04-16T12:04:24.800Z,57.48
2023-04-16T12:07:07.841Z,59.30
2023-04-16T12:09:37.922Z,57.96
2023-04-16T12:12:06.714Z,57.17
2023-04-16T12:14:33.179Z,52.30
2023-04-16T12:17:21.165Z,53.21
2023-04-16T12:19:52.256Z,55.30
2023-04-16T12:22:27.685Z,55.79
2023-04-16T12:25:04.776Z,55.72
2023-04-16T12:27:53.732Z,56.30
2023-04-16T12:30:24.917Z,57.56
2023-04-16T12:33:10.540Z,58.37
2023-04-16T12:35:37.015Z,57.85
2023-04-16T12:38:03.561Z,58.73
2023-04-16T12:40:30.086Z,58.19
2023-04-16T12:42:56.557Z,58.35
2023-04-16T12:45:25.156Z,57.33
2023-04-16T12:47:51.904Z,57.54
2023-04-16T12:50:18.399Z,57.68
2023-04-16T12:52:45.038Z,58.38
2023-04-16T12:55:12.399Z,57.50
2023-04-16T12:57:38.753Z,57.39
2023-04-16T13:00:06.644Z,55.59
2023-04-16T13:02:33.121Z,54.30
2023-04-16T13:04:59.689Z,53.17
2023-04-16T13:07:26.750Z,53.04
2023-04-16T13:09:53.190Z,53.32
2023-04-16T13:12:22.081Z,54.52
2023-04-16T13:14:48.519Z,54.04
2023-04-16T13:17:15.368Z,52.34
2023-04-16T13:19:41.788Z,53.67
2023-04-16T13:22:09.699Z,54.54
2023-04-16T13:24:36.246Z,56.53
2023-04-16T13:27:02.674Z,57.42
2023-04-16T13:29:29.919Z,57.02
2023-04-16T13:31:57.503Z,57.52
2023-04-16T13:34:23.886Z,57.35
2023-04-16T13:36:50.318Z,56.94
2023-04-16T13:39:17.575Z,57.16
2023-04-16T13:41:45.161Z,56.83
2023-04-16T13:44:11.527Z,57.16
2023-04-16T13:46:38.026Z,57.28
2023-04-16T13:49:06.987Z,57.45
2023-04-16T13:51:33.793Z,56.48
2023-04-16T13:54:00.230Z,56.93
2023-04-16T13:56:26.652Z,55.88
2023-04-16T13:58:53.342Z,54.67
2023-04-16T14:01:20.002Z,56.31
2023-04-16T14:03:46.637Z,54.85
2023-04-16T14:06:13.724Z,56.12
2023-04-16T14:08:40.158Z,55.46
2023-04-16T14:11:06.660Z,56.05
2023-04-16T14:13:34.827Z,55.65
2023-04-16T14:16:02.409Z,56.17
2023-04-16T14:18:28.768Z,55.85
2023-04-16T14:20:55.648Z,55.04
2023-04-16T14:23:24.227Z,53.81
2023-04-16T14:25:50.684Z,55.85
2023-04-16T14:28:17.462Z,57.71
2023-04-16T14:30:43.983Z,60.48
2023-04-16T14:33:15.315Z,62.46
2023-04-16T14:35:41.716Z,63.69
2023-04-16T14:38:08.509Z,64.87
2023-04-16T14:40:35.212Z,65.97
2023-04-16T14:43:01.579Z,66.63
2023-04-16T14:45:29.958Z,66.69
2023-04-16T14:47:57.026Z,67.50
2023-04-16T14:50:23.496Z,66.89
2023-04-16T14:52:50.720Z,66.29
2023-04-16T14:55:19.766Z,65.59
2023-04-16T14:57:46.830Z,64.96
2023-04-16T15:00:17.099Z,64.53
2023-04-16T15:02:43.677Z,64.83
2023-04-16T15:05:10.634Z,64.23
2023-04-16T15:07:37.356Z,64.70
2023-04-16T15:10:04.310Z,64.42
2023-04-16T15:12:30.800Z,64.20
2023-04-16T15:14:57.307Z,65.45
2023-04-16T15:17:23.896Z,65.57
2023-04-16T15:19:52.123Z,67.15
2023-04-16T15:22:18.574Z,67.71
2023-04-16T15:24:45.127Z,67.44
2023-04-16T15:27:13.759Z,67.34
2023-04-16T15:29:42.896Z,67.67
2023-04-16T15:32:09.458Z,69.45
2023-04-16T15:34:35.912Z,69.98
2023-04-16T15:37:02.346Z,71.33
2023-04-16T15:39:28.788Z,72.98
2023-04-16T15:42:01.536Z,74.04
2023-04-16T15:44:30.959Z,75.59
2023-04-16T15:46:57.505Z,74.47
2023-04-16T15:49:24.714Z,74.17
2023-04-16T15:51:52.043Z,73.08
2023-04-16T15:54:18.668Z,73.05
2023-04-16T15:56:46.541Z,72.03
2023-04-16T15:59:13.387Z,72.42
2023-04-16T16:01:40.219Z,71.27
2023-04-16T16:04:09.336Z,70.78
2023-04-16T16:06:38.099Z,71.11
2023-04-16T16:09:04.959Z,70.06
2023-04-16T16:11:32.804Z,69.59
2023-04-16T16:14:02.897Z,69.71
2023-04-16T16:16:29.743Z,69.38
2023-04-16T16:18:56.567Z,70.48
2023-04-16T16:21:23.306Z,70.08
2023-04-16T16:23:50.022Z,72.05
2023-04-16T16:26:20.290Z,70.87
2023-04-16T16:28:47.998Z,69.97
2023-04-16T16:31:14.724Z,70.07
2023-04-16T16:33:41.180Z,70.57
2023-04-16T16:36:11.419Z,70.89
2023-04-16T16:38:39.943Z,70.06
2023-04-16T16:41:07.280Z,70.33
2023-04-16T16:43:35.517Z,69.85
2023-04-16T16:46:02.295Z,69.69
2023-04-16T16:48:29.401Z,70.46
2023-04-16T16:50:56.471Z,70.80
2023-04-16T16:53:23.141Z,70.12
2023-04-16T16:55:49.611Z,70.18
2023-04-16T16:58:19.919Z,69.97
2023-04-16T17:00:48.496Z,70.17
2023-04-16T17:03:15.841Z,69.95
2023-04-16T17:05:42.624Z,69.67
2023-04-16T17:08:09.086Z,69.62
2023-04-16T17:10:35.910Z,70.21
2023-04-16T17:13:02.412Z,69.65
2023-04-16T17:15:28.921Z,69.88
2023-04-16T17:17:55.415Z,69.73
2023-04-16T17:20:22.201Z,70.42
2023-04-16T17:22:48.634Z,70.07
2023-04-16T17:25:15.564Z,69.73
2023-04-16T17:27:41.989Z,70.36
2023-04-16T17:30:08.939Z,70.05
2023-04-16T17:32:35.987Z,70.33
2023-04-16T17:35:04.168Z,70.49
2023-04-16T17:37:30.998Z,70.82
2023-04-16T17:39:57.381Z,71.25
2023-04-16T17:42:24.494Z,70.83
2023-04-16T17:44:53.164Z,71.18
2023-04-16T17:47:19.598Z,71.44
2023-04-16T17:49:46.153Z,70.96
2023-04-16T17:52:12.564Z,71.11
2023-04-16T17:54:38.904Z,71.53
2023-04-16T17:57:07.373Z,72.50
2023-04-16T17:59:34.491Z,72.60
2023-04-16T18:02:01.875Z,72.42
2023-04-16T18:04:28.674Z,72.23
2023-04-16T18:06:55.207Z,72.48
2023-04-16T18:09:21.760Z,72.41
2023-04-16T18:11:48.405Z,72.58
2023-04-16T18:14:19.679Z,71.50
2023-04-16T18:16:47.511Z,71.09
2023-04-16T18:19:17.099Z,72.21
2023-04-16T18:21:43.659Z,71.50
2023-04-16T18:24:10.643Z,71.72
2023-04-16T18:26:37.662Z,71.39
2023-04-16T18:29:04.645Z,72.03
2023-04-16T18:31:31.308Z,73.07
2023-04-16T18:33:58.562Z,72.39
2023-04-16T18:36:26.585Z,72.15
2023-04-16T18:39:01.520Z,72.02
2023-04-16T18:41:44.782Z,72.34
2023-04-16T18:44:11.363Z,72.72
2023-04-16T18:46:37.853Z,73.37
2023-04-16T18:49:04.381Z,73.17
2023-04-16T18:51:30.853Z,73.24
2023-04-16T18:53:57.291Z,73.14
2023-04-16T18:56:23.771Z,73.32
2023-04-16T18:58:50.156Z,73.48
2023-04-16T19:01:16.828Z,73.80
2023-04-16T19:03:43.367Z,74.14
2023-04-16T19:06:09.882Z,73.89
2023-04-16T19:08:36.612Z,73.73
2023-04-16T19:11:03.074Z,74.15
2023-04-16T19:13:30.452Z,74.21
2023-04-16T19:16:04.906Z,75.01
2023-04-16T19:18:31.675Z,74.66
2023-04-16T19:21:01.547Z,75.66
2023-04-16T19:23:30.356Z,74.81
2023-04-16T19:25:57.025Z,74.27
2023-04-16T19:28:24.415Z,74.29
2023-04-16T19:30:51.652Z,74.41
2023-04-16T19:33:18.823Z,74.67
2023-04-16T19:35:48.531Z,74.83
2023-04-16T19:38:15.071Z,75.11
2023-04-16T19:40:47.821Z,75.17
2023-04-16T19:43:14.773Z,75.73
2023-04-16T19:45:44.530Z,76.26
2023-04-16T19:48:11.348Z,76.02
2023-04-16T19:50:44.445Z,76.42
2023-04-16T19:53:14.614Z,76.75
2023-04-16T19:55:41.719Z,76.27
2023-04-16T19:58:09.106Z,76.85
2023-04-16T20:00:42.574Z,76.88
2023-04-16T20:03:09.564Z,77.33
2023-04-16T20:05:36.499Z,76.88
2023-04-16T20:08:02.970Z,76.39
2023-04-16T20:10:32.644Z,76.49
2023-04-16T20:12:59.183Z,76.11
2023-04-16T20:15:25.742Z,76.81
2023-04-16T20:17:52.367Z,76.73
2023-04-16T20:20:19.101Z,76.14
2023-04-16T20:22:45.865Z,76.85
2023-04-16T20:25:14.303Z,77.04
2023-04-16T20:27:40.742Z,76.88
2023-04-16T20:30:08.785Z,76.71
2023-04-16T20:32:35.351Z,77.03
2023-04-16T20:35:02.012Z,76.79
2023-04-16T20:37:29.116Z,77.64
2023-04-16T20:39:56.222Z,78.19
2023-04-16T20:42:32.301Z,78.45
2023-04-16T20:45:00.649Z,77.78
2023-04-16T20:47:27.252Z,78.15
2023-04-16T20:49:54.846Z,77.87
2023-04-16T20:52:25.474Z,78.29
2023-04-16T20:54:52.316Z,77.99
2023-04-16T20:57:18.968Z,78.15
2023-04-16T20:59:45.516Z,78.84
2023-04-16T21:02:11.997Z,77.69
2023-04-16T21:04:38.479Z,78.09
2023-04-16T21:07:05.285Z,77.50
2023-04-16T21:09:31.706Z,77.13
2023-04-16T21:11:58.300Z,77.78
2023-04-16T21:14:24.817Z,78.57
2023-04-16T21:16:51.363Z,77.95
2023-04-16T21:19:17.734Z,77.80
2023-04-16T21:21:44.193Z,78.19
2023-04-16T21:24:10.779Z,77.97
2023-04-16T21:26:39.414Z,79.36
2023-04-16T21:29:05.882Z,79.23
2023-04-16T21:31:32.424Z,79.03
2023-04-16T21:33:58.830Z,78.25
2023-04-16T21:36:27.652Z,79.58
2023-04-16T21:38:54.036Z,79.38
2023-04-16T21:41:20.533Z,78.41
2023-04-16T21:43:46.882Z,79.77
2023-04-16T21:46:13.351Z,78.71
2023-04-16T21:48:39.753Z,79.37
2023-04-16T21:51:11.422Z,78.74
2023-04-16T21:53:38.990Z,78.50
2023-04-16T21:56:06.356Z,78.63
2023-04-16T21:58:32.800Z,79.14
2023-04-16T22:01:00.391Z,79.05
2023-04-16T22:03:30.268Z,78.82
2023-04-16T22:06:03.206Z,78.13
2023-04-16T22:08:29.956Z,78.84
2023-04-16T22:10:58.191Z,79.71
2023-04-16T22:13:26.019Z,79.29
2023-04-16T22:15:53.089Z,79.41
2023-04-16T22:18:19.451Z,79.49
2023-04-16T22:20:47.180Z,81.04
2023-04-16T22:23:14.022Z,80.78
2023-04-16T22:25:40.510Z,81.11
2023-04-16T22:28:07.101Z,80.46
2023-04-16T22:30:33.471Z,80.84
2023-04-16T22:32:59.907Z,81.36
2023-04-16T22:35:26.406Z,81.13
2023-04-16T22:37:52.832Z,81.33
2023-04-16T22:40:19.294Z,81.19
2023-04-16T22:42:45.868Z,81.13
2023-04-16T22:45:15.491Z,81.17
2023-04-16T22:47:41.883Z,81.98
2023-04-16T22:50:08.788Z,82.58
2023-04-16T22:52:35.355Z,81.51
2023-04-16T22:55:01.832Z,81.70
2023-04-16T22:57:28.214Z,82.01
2023-04-16T22:59:54.550Z,81.38
2023-04-16T23:02:21.425Z,81.65
2023-04-16T23:04:48.091Z,81.97
2023-04-16T23:07:15.008Z,81.25
2023-04-16T23:09:41.608Z,81.45
2023-04-16T23:12:08.642Z,81.48
2023-04-16T23:14:35.222Z,81.25
2023-04-16T23:17:01.841Z,81.84
2023-04-16T23:19:31.633Z,81.60
2023-04-16T23:21:58.078Z,81.41
2023-04-16T23:24:24.585Z,82.14
2023-04-16T23:26:52.424Z,81.79
2023-04-16T23:29:19.254Z,82.13
2023-04-16T23:31:45.782Z,82.25
2023-04-16T23:34:12.181Z,82.65
2023-04-16T23:36:39.211Z,82.53
2023-04-16T23:39:05.630Z,82.55
2023-04-16T23:41:32.105Z,82.60
2023-04-16T23:43:58.494Z,82.44
2023-04-16T23:46:25.061Z,83.39
2023-04-16T23:48:54.478Z,82.81
2023-04-16T23:51:20.920Z,83.06
2023-04-16T23:53:49.662Z,82.92
2023-04-16T23:56:16.834Z,82.61
2023-04-16T23:58:43.401Z,82.25
